sensor_id;sensor_type;location;lat;lon;timestamp;pressure;altitude;pressure_sealevel;temperature
69590;BMP180;56792;50.644;17.984;2023-02-20T00:01:26;100264.20;;;0.98
69590;BMP180;56792;50.644;17.984;2023-02-20T00:03:59;100267.60;;;0.90
69590;BMP180;56792;50.644;17.984;2023-02-20T00:06:32;100267.00;;;0.90
69590;BMP180;56792;50.644;17.984;2023-02-20T00:09:04;100268.80;;;0.90
69590;BMP180;56792;50.644;17.984;2023-02-20T00:11:37;100275.00;;;0.90
69590;BMP180;56792;50.644;17.984;2023-02-20T00:14:09;100276.40;;;0.90
69590;BMP180;56792;50.644;17.984;2023-02-20T00:16:43;100272.80;;;0.90
69590;BMP180;56792;50.644;17.984;2023-02-20T00:19:17;100267.20;;;0.90
69590;BMP180;56792;50.644;17.984;2023-02-20T00:21:50;100263.60;;;0.90
69590;BMP180;56792;50.644;17.984;2023-02-20T00:24:24;100264.00;;;0.90
69590;BMP180;56792;50.644;17.984;2023-02-20T00:26:56;100260.20;;;0.90
69590;BMP180;56792;50.644;17.984;2023-02-20T00:29:30;100260.40;;;0.90
69590;BMP180;56792;50.644;17.984;2023-02-20T00:32:03;100269.40;;;0.90
69590;BMP180;56792;50.644;17.984;2023-02-20T00:34:36;100266.00;;;1.00
69590;BMP180;56792;50.644;17.984;2023-02-20T00:37:10;100260.20;;;1.00
69590;BMP180;56792;50.644;17.984;2023-02-20T00:39:42;100256.40;;;1.00
69590;BMP180;56792;50.644;17.984;2023-02-20T00:42:14;100254.60;;;1.00
69590;BMP180;56792;50.644;17.984;2023-02-20T00:44:47;100249.20;;;1.10
69590;BMP180;56792;50.644;17.984;2023-02-20T00:47:20;100253.40;;;1.10
69590;BMP180;56792;50.644;17.984;2023-02-20T00:49:52;100246.00;;;1.10
69590;BMP180;56792;50.644;17.984;2023-02-20T00:52:27;100255.20;;;1.10
69590;BMP180;56792;50.644;17.984;2023-02-20T00:54:59;100253.00;;;1.14
69590;BMP180;56792;50.644;17.984;2023-02-20T00:57:32;100258.00;;;1.20
69590;BMP180;56792;50.644;17.984;2023-02-20T01:00:09;100250.20;;;1.20
69590;BMP180;56792;50.644;17.984;2023-02-20T01:02:42;100246.80;;;1.20
69590;BMP180;56792;50.644;17.984;2023-02-20T01:05:15;100244.20;;;1.20
69590;BMP180;56792;50.644;17.984;2023-02-20T01:07:47;100245.20;;;1.20
69590;BMP180;56792;50.644;17.984;2023-02-20T01:10:19;100244.60;;;1.20
69590;BMP180;56792;50.644;17.984;2023-02-20T01:12:51;100251.60;;;1.20
69590;BMP180;56792;50.644;17.984;2023-02-20T01:15:24;100251.80;;;1.20
69590;BMP180;56792;50.644;17.984;2023-02-20T01:17:56;100251.80;;;1.10
69590;BMP180;56792;50.644;17.984;2023-02-20T01:20:28;100256.20;;;1.10
69590;BMP180;56792;50.644;17.984;2023-02-20T01:23:01;100255.00;;;1.10
69590;BMP180;56792;50.644;17.984;2023-02-20T01:25:33;100246.20;;;1.10
69590;BMP180;56792;50.644;17.984;2023-02-20T01:28:07;100242.80;;;1.10
69590;BMP180;56792;50.644;17.984;2023-02-20T01:30:39;100234.20;;;1.10
69590;BMP180;56792;50.644;17.984;2023-02-20T01:33:13;100230.40;;;1.10
69590;BMP180;56792;50.644;17.984;2023-02-20T01:35:46;100223.80;;;1.08
69590;BMP180;56792;50.644;17.984;2023-02-20T01:38:18;100220.20;;;1.10
69590;BMP180;56792;50.644;17.984;2023-02-20T01:40:51;100214.80;;;1.06
69590;BMP180;56792;50.644;17.984;2023-02-20T01:43:23;100209.40;;;1.02
69590;BMP180;56792;50.644;17.984;2023-02-20T01:48:40;100211.80;;;1.00
69590;BMP180;56792;50.644;17.984;2023-02-20T01:51:13;100206.00;;;1.00
69590;BMP180;56792;50.644;17.984;2023-02-20T01:53:46;100200.60;;;1.00
69590;BMP180;56792;50.644;17.984;2023-02-20T01:56:19;100191.80;;;1.00
69590;BMP180;56792;50.644;17.984;2023-02-20T01:58:52;100190.40;;;1.00
69590;BMP180;56792;50.644;17.984;2023-02-20T02:01:25;100184.80;;;1.00
69590;BMP180;56792;50.644;17.984;2023-02-20T02:04:02;100181.00;;;1.00
69590;BMP180;56792;50.644;17.984;2023-02-20T02:06:39;100180.20;;;1.00
69590;BMP180;56792;50.644;17.984;2023-02-20T02:09:20;100180.80;;;1.00
69590;BMP180;56792;50.644;17.984;2023-02-20T02:11:55;100181.60;;;1.00
69590;BMP180;56792;50.644;17.984;2023-02-20T02:14:28;100178.60;;;1.00
69590;BMP180;56792;50.644;17.984;2023-02-20T02:17:24;100175.00;;;1.00
69590;BMP180;56792;50.644;17.984;2023-02-20T02:24:03;100164.40;;;1.00
69590;BMP180;56792;50.644;17.984;2023-02-20T02:27:21;100147.00;;;1.00
69590;BMP180;56792;50.644;17.984;2023-02-20T02:34:16;100147.40;;;1.00
69590;BMP180;56792;50.644;17.984;2023-02-20T02:37:04;100141.60;;;1.00
69590;BMP180;56792;50.644;17.984;2023-02-20T02:39:46;100137.40;;;1.00
69590;BMP180;56792;50.644;17.984;2023-02-20T02:42:28;100136.80;;;1.00
69590;BMP180;56792;50.644;17.984;2023-02-20T02:45:13;100129.00;;;1.00
69590;BMP180;56792;50.644;17.984;2023-02-20T02:47:58;100136.20;;;1.00
69590;BMP180;56792;50.644;17.984;2023-02-20T02:50:36;100146.60;;;1.00
69590;BMP180;56792;50.644;17.984;2023-02-20T02:53:12;100148.80;;;1.06
69590;BMP180;56792;50.644;17.984;2023-02-20T02:55:44;100147.80;;;1.10
69590;BMP180;56792;50.644;17.984;2023-02-20T02:58:20;100147.80;;;1.10
69590;BMP180;56792;50.644;17.984;2023-02-20T03:00:57;100145.00;;;1.10
69590;BMP180;56792;50.644;17.984;2023-02-20T03:03:35;100145.60;;;1.10
69590;BMP180;56792;50.644;17.984;2023-02-20T03:06:14;100147.00;;;1.10
69590;BMP180;56792;50.644;17.984;2023-02-20T03:08:58;100142.40;;;1.10
69590;BMP180;56792;50.644;17.984;2023-02-20T03:11:33;100135.40;;;1.10
69590;BMP180;56792;50.644;17.984;2023-02-20T03:14:14;100133.60;;;1.10
69590;BMP180;56792;50.644;17.984;2023-02-20T03:17:14;100121.40;;;1.08
69590;BMP180;56792;50.644;17.984;2023-02-20T03:19:56;100123.00;;;1.00
69590;BMP180;56792;50.644;17.984;2023-02-20T03:22:33;100123.60;;;1.00
69590;BMP180;56792;50.644;17.984;2023-02-20T03:25:11;100124.40;;;0.90
69590;BMP180;56792;50.644;17.984;2023-02-20T03:27:49;100122.40;;;0.90
69590;BMP180;56792;50.644;17.984;2023-02-20T03:30:29;100117.60;;;0.80
69590;BMP180;56792;50.644;17.984;2023-02-20T03:33:09;100119.20;;;0.70
69590;BMP180;56792;50.644;17.984;2023-02-20T03:36:06;100115.20;;;0.70
69590;BMP180;56792;50.644;17.984;2023-02-20T03:39:03;100116.40;;;0.60
69590;BMP180;56792;50.644;17.984;2023-02-20T03:41:56;100104.80;;;0.60
69590;BMP180;56792;50.644;17.984;2023-02-20T03:44:50;100103.20;;;0.50
69590;BMP180;56792;50.644;17.984;2023-02-20T03:47:27;100100.40;;;0.40
69590;BMP180;56792;50.644;17.984;2023-02-20T03:50:02;100095.00;;;0.40
69590;BMP180;56792;50.644;17.984;2023-02-20T03:52:55;100092.80;;;0.30
69590;BMP180;56792;50.644;17.984;2023-02-20T03:55:28;100093.80;;;0.22
69590;BMP180;56792;50.644;17.984;2023-02-20T03:58:06;100091.60;;;0.20
69590;BMP180;56792;50.644;17.984;2023-02-20T04:00:45;100105.00;;;0.16
69590;BMP180;56792;50.644;17.984;2023-02-20T04:03:22;100099.60;;;0.10
69590;BMP180;56792;50.644;17.984;2023-02-20T04:06:01;100101.20;;;0.10
69590;BMP180;56792;50.644;17.984;2023-02-20T04:08:45;100091.40;;;0.10
69590;BMP180;56792;50.644;17.984;2023-02-20T04:11:23;100089.00;;;0.10
69590;BMP180;56792;50.644;17.984;2023-02-20T04:13:57;100085.60;;;0.20
69590;BMP180;56792;50.644;17.984;2023-02-20T04:16:36;100087.60;;;0.18
69590;BMP180;56792;50.644;17.984;2023-02-20T04:19:09;100087.40;;;0.20
69590;BMP180;56792;50.644;17.984;2023-02-20T04:21:47;100098.40;;;0.20
69590;BMP180;56792;50.644;17.984;2023-02-20T04:24:25;100092.40;;;0.20
69590;BMP180;56792;50.644;17.984;2023-02-20T04:27:02;100094.20;;;0.20
69590;BMP180;56792;50.644;17.984;2023-02-20T04:29:36;100099.60;;;0.20
69590;BMP180;56792;50.644;17.984;2023-02-20T04:32:09;100092.20;;;0.24
69590;BMP180;56792;50.644;17.984;2023-02-20T04:34:42;100089.00;;;0.30
69590;BMP180;56792;50.644;17.984;2023-02-20T04:37:18;100081.00;;;0.30
69590;BMP180;56792;50.644;17.984;2023-02-20T04:39:53;100069.00;;;0.30
69590;BMP180;56792;50.644;17.984;2023-02-20T04:42:25;100067.40;;;0.30
69590;BMP180;56792;50.644;17.984;2023-02-20T04:44:58;100075.20;;;0.30
69590;BMP180;56792;50.644;17.984;2023-02-20T04:47:31;100077.60;;;0.30
69590;BMP180;56792;50.644;17.984;2023-02-20T04:50:05;100080.40;;;0.40
69590;BMP180;56792;50.644;17.984;2023-02-20T04:52:37;100076.80;;;0.40
69590;BMP180;56792;50.644;17.984;2023-02-20T04:55:11;100071.00;;;0.40
69590;BMP180;56792;50.644;17.984;2023-02-20T04:57:44;100059.20;;;0.40
69590;BMP180;56792;50.644;17.984;2023-02-20T05:00:19;100050.00;;;0.40
69590;BMP180;56792;50.644;17.984;2023-02-20T05:02:52;100043.00;;;0.40
69590;BMP180;56792;50.644;17.984;2023-02-20T05:05:27;100051.40;;;0.40
69590;BMP180;56792;50.644;17.984;2023-02-20T05:08:03;100051.20;;;0.30
69590;BMP180;56792;50.644;17.984;2023-02-20T05:10:36;100049.20;;;0.30
69590;BMP180;56792;50.644;17.984;2023-02-20T05:13:09;100042.00;;;0.22
69590;BMP180;56792;50.644;17.984;2023-02-20T05:15:42;100036.20;;;0.26
69590;BMP180;56792;50.644;17.984;2023-02-20T05:18:14;100036.40;;;0.26
69590;BMP180;56792;50.644;17.984;2023-02-20T05:20:54;100040.00;;;0.20
69590;BMP180;56792;50.644;17.984;2023-02-20T05:23:47;100032.80;;;0.20
69590;BMP180;56792;50.644;17.984;2023-02-20T05:26:22;100028.00;;;0.20
69590;BMP180;56792;50.644;17.984;2023-02-20T05:28:55;100021.00;;;0.20
69590;BMP180;56792;50.644;17.984;2023-02-20T05:31:27;100014.00;;;0.20
69590;BMP180;56792;50.644;17.984;2023-02-20T05:33:59;100019.80;;;0.26
69590;BMP180;56792;50.644;17.984;2023-02-20T05:36:32;100018.60;;;0.30
69590;BMP180;56792;50.644;17.984;2023-02-20T05:39:05;100025.40;;;0.40
69590;BMP180;56792;50.644;17.984;2023-02-20T05:41:38;100022.00;;;0.40
69590;BMP180;56792;50.644;17.984;2023-02-20T05:44:11;100030.20;;;0.50
69590;BMP180;56792;50.644;17.984;2023-02-20T05:46:43;100036.40;;;0.50
69590;BMP180;56792;50.644;17.984;2023-02-20T05:49:17;100040.40;;;0.52
69590;BMP180;56792;50.644;17.984;2023-02-20T05:51:49;100037.00;;;0.60
69590;BMP180;56792;50.644;17.984;2023-02-20T05:54:22;100037.80;;;0.60
69590;BMP180;56792;50.644;17.984;2023-02-20T05:56:55;100029.20;;;0.70
69590;BMP180;56792;50.644;17.984;2023-02-20T05:59:27;100027.60;;;0.70
69590;BMP180;56792;50.644;17.984;2023-02-20T06:02:01;100019.20;;;0.80
69590;BMP180;56792;50.644;17.984;2023-02-20T06:04:34;100009.20;;;0.80
69590;BMP180;56792;50.644;17.984;2023-02-20T06:07:08;99998.60;;;0.80
69590;BMP180;56792;50.644;17.984;2023-02-20T06:09:44;100005.60;;;0.90
69590;BMP180;56792;50.644;17.984;2023-02-20T06:12:16;100004.40;;;0.90
69590;BMP180;56792;50.644;17.984;2023-02-20T06:14:49;100005.20;;;1.00
69590;BMP180;56792;50.644;17.984;2023-02-20T06:17:21;100009.40;;;1.00
69590;BMP180;56792;50.644;17.984;2023-02-20T06:19:54;100016.20;;;1.10
69590;BMP180;56792;50.644;17.984;2023-02-20T06:22:27;100017.80;;;1.10
69590;BMP180;56792;50.644;17.984;2023-02-20T06:24:59;100017.80;;;1.20
69590;BMP180;56792;50.644;17.984;2023-02-20T06:27:32;100021.20;;;1.20
69590;BMP180;56792;50.644;17.984;2023-02-20T06:30:05;100025.60;;;1.30
69590;BMP180;56792;50.644;17.984;2023-02-20T06:32:38;100022.20;;;1.30
69590;BMP180;56792;50.644;17.984;2023-02-20T06:35:11;100024.40;;;1.40
69590;BMP180;56792;50.644;17.984;2023-02-20T06:37:43;100025.80;;;1.42
69590;BMP180;56792;50.644;17.984;2023-02-20T06:40:16;100033.80;;;1.50
69590;BMP180;56792;50.644;17.984;2023-02-20T06:42:48;100027.40;;;1.52
69590;BMP180;56792;50.644;17.984;2023-02-20T06:45:20;100023.60;;;1.60
69590;BMP180;56792;50.644;17.984;2023-02-20T06:47:52;100025.20;;;1.70
69590;BMP180;56792;50.644;17.984;2023-02-20T06:50:25;100015.20;;;1.70
69590;BMP180;56792;50.644;17.984;2023-02-20T06:52:57;100009.60;;;1.78
69590;BMP180;56792;50.644;17.984;2023-02-20T06:55:29;100013.60;;;1.80
69590;BMP180;56792;50.644;17.984;2023-02-20T06:58:02;100013.40;;;1.90
69590;BMP180;56792;50.644;17.984;2023-02-20T07:00:34;100020.60;;;1.98
69590;BMP180;56792;50.644;17.984;2023-02-20T07:03:07;100029.40;;;2.02
69590;BMP180;56792;50.644;17.984;2023-02-20T07:05:40;100018.60;;;2.10
69590;BMP180;56792;50.644;17.984;2023-02-20T07:08:13;100009.20;;;2.20
69590;BMP180;56792;50.644;17.984;2023-02-20T07:10:46;100017.00;;;2.30
69590;BMP180;56792;50.644;17.984;2023-02-20T07:13:20;100009.80;;;2.40
69590;BMP180;56792;50.644;17.984;2023-02-20T07:15:53;100009.00;;;2.40
69590;BMP180;56792;50.644;17.984;2023-02-20T07:18:26;100007.60;;;2.50
69590;BMP180;56792;50.644;17.984;2023-02-20T07:20:58;100003.40;;;2.50
69590;BMP180;56792;50.644;17.984;2023-02-20T07:23:32;99997.20;;;2.60
69590;BMP180;56792;50.644;17.984;2023-02-20T07:26:06;99991.80;;;2.70
69590;BMP180;56792;50.644;17.984;2023-02-20T07:28:39;99997.20;;;2.80
69590;BMP180;56792;50.644;17.984;2023-02-20T07:31:12;99984.80;;;2.90
69590;BMP180;56792;50.644;17.984;2023-02-20T07:33:47;99975.60;;;3.00
69590;BMP180;56792;50.644;17.984;2023-02-20T07:36:22;99966.60;;;3.06
69590;BMP180;56792;50.644;17.984;2023-02-20T07:39:01;99965.00;;;3.18
69590;BMP180;56792;50.644;17.984;2023-02-20T07:41:34;99956.80;;;3.30
69590;BMP180;56792;50.644;17.984;2023-02-20T07:44:09;99947.80;;;3.40
69590;BMP180;56792;50.644;17.984;2023-02-20T07:46:44;99947.00;;;3.50
69590;BMP180;56792;50.644;17.984;2023-02-20T07:49:17;99942.80;;;3.60
69590;BMP180;56792;50.644;17.984;2023-02-20T07:51:51;99937.00;;;3.70
69590;BMP180;56792;50.644;17.984;2023-02-20T07:54:24;99931.00;;;3.80
69590;BMP180;56792;50.644;17.984;2023-02-20T07:57:00;99932.60;;;3.90
69590;BMP180;56792;50.644;17.984;2023-02-20T07:59:32;99933.40;;;3.90
69590;BMP180;56792;50.644;17.984;2023-02-20T08:02:05;99935.60;;;4.00
69590;BMP180;56792;50.644;17.984;2023-02-20T08:04:37;99938.40;;;4.10
69590;BMP180;56792;50.644;17.984;2023-02-20T08:07:10;99940.00;;;4.20
69590;BMP180;56792;50.644;17.984;2023-02-20T08:09:42;99930.60;;;4.24
69590;BMP180;56792;50.644;17.984;2023-02-20T08:12:16;99916.80;;;4.38
69590;BMP180;56792;50.644;17.984;2023-02-20T08:14:50;99919.60;;;4.48
69590;BMP180;56792;50.644;17.984;2023-02-20T08:17:22;99910.20;;;4.50
69590;BMP180;56792;50.644;17.984;2023-02-20T08:19:55;99907.80;;;4.60
69590;BMP180;56792;50.644;17.984;2023-02-20T08:22:27;99903.40;;;4.70
69590;BMP180;56792;50.644;17.984;2023-02-20T08:24:59;99903.80;;;4.80
69590;BMP180;56792;50.644;17.984;2023-02-20T08:27:34;99902.20;;;5.00
69590;BMP180;56792;50.644;17.984;2023-02-20T08:30:11;99897.20;;;5.20
69590;BMP180;56792;50.644;17.984;2023-02-20T08:32:44;99888.20;;;5.40
69590;BMP180;56792;50.644;17.984;2023-02-20T08:35:17;99879.20;;;5.40
69590;BMP180;56792;50.644;17.984;2023-02-20T08:37:49;99874.80;;;5.48
69590;BMP180;56792;50.644;17.984;2023-02-20T08:40:22;99870.00;;;5.46
69590;BMP180;56792;50.644;17.984;2023-02-20T08:42:58;99860.40;;;5.50
69590;BMP180;56792;50.644;17.984;2023-02-20T08:45:31;99856.80;;;5.50
69590;BMP180;56792;50.644;17.984;2023-02-20T08:48:03;99850.60;;;5.40
69590;BMP180;56792;50.644;17.984;2023-02-20T08:50:36;99840.00;;;5.40
69590;BMP180;56792;50.644;17.984;2023-02-20T08:53:08;99840.40;;;5.40
69590;BMP180;56792;50.644;17.984;2023-02-20T08:55:41;99835.80;;;5.40
69590;BMP180;56792;50.644;17.984;2023-02-20T08:58:15;99840.20;;;5.40
69590;BMP180;56792;50.644;17.984;2023-02-20T09:00:49;99841.00;;;5.40
69590;BMP180;56792;50.644;17.984;2023-02-20T09:03:22;99832.80;;;5.40
69590;BMP180;56792;50.644;17.984;2023-02-20T09:05:56;99834.80;;;5.50
69590;BMP180;56792;50.644;17.984;2023-02-20T09:08:29;99832.80;;;5.48
69590;BMP180;56792;50.644;17.984;2023-02-20T09:11:01;99823.80;;;5.48
69590;BMP180;56792;50.644;17.984;2023-02-20T09:13:33;99824.40;;;5.50
69590;BMP180;56792;50.644;17.984;2023-02-20T09:16:09;99822.60;;;5.50
69590;BMP180;56792;50.644;17.984;2023-02-20T09:18:42;99813.20;;;5.60
69590;BMP180;56792;50.644;17.984;2023-02-20T09:21:17;99816.80;;;5.60
69590;BMP180;56792;50.644;17.984;2023-02-20T09:23:50;99807.00;;;5.60
69590;BMP180;56792;50.644;17.984;2023-02-20T09:26:22;99819.40;;;5.70
69590;BMP180;56792;50.644;17.984;2023-02-20T09:28:55;99818.00;;;5.70
69590;BMP180;56792;50.644;17.984;2023-02-20T09:31:27;99828.00;;;5.80
69590;BMP180;56792;50.644;17.984;2023-02-20T09:34:00;99819.60;;;5.82
69590;BMP180;56792;50.644;17.984;2023-02-20T09:36:34;99812.80;;;5.90
69590;BMP180;56792;50.644;17.984;2023-02-20T09:42:13;99791.00;;;6.00
69590;BMP180;56792;50.644;17.984;2023-02-20T09:45:02;99794.20;;;6.10
69590;BMP180;56792;50.644;17.984;2023-02-20T09:47:58;99787.20;;;6.20
69590;BMP180;56792;50.644;17.984;2023-02-20T09:50:38;99786.00;;;6.30
69590;BMP180;56792;50.644;17.984;2023-02-20T09:53:21;99777.20;;;6.34
69590;BMP180;56792;50.644;17.984;2023-02-20T09:55:57;99772.40;;;6.40
69590;BMP180;56792;50.644;17.984;2023-02-20T09:58:45;99769.20;;;6.50
69590;BMP180;56792;50.644;17.984;2023-02-20T10:01:25;99769.40;;;6.52
69590;BMP180;56792;50.644;17.984;2023-02-20T10:04:01;99758.00;;;6.60
69590;BMP180;56792;50.644;17.984;2023-02-20T10:06:37;99757.40;;;6.70
69590;BMP180;56792;50.644;17.984;2023-02-20T10:09:14;99761.60;;;6.74
69590;BMP180;56792;50.644;17.984;2023-02-20T10:12:06;99748.60;;;6.80
69590;BMP180;56792;50.644;17.984;2023-02-20T10:14:58;99740.60;;;6.90
69590;BMP180;56792;50.644;17.984;2023-02-20T10:17:43;99735.40;;;6.90
69590;BMP180;56792;50.644;17.984;2023-02-20T10:20:24;99736.20;;;7.00
69590;BMP180;56792;50.644;17.984;2023-02-20T10:23:17;99727.20;;;7.04
69590;BMP180;56792;50.644;17.984;2023-02-20T10:25:59;99718.40;;;7.10
69590;BMP180;56792;50.644;17.984;2023-02-20T10:28:33;99719.40;;;7.20
69590;BMP180;56792;50.644;17.984;2023-02-20T10:31:24;99715.60;;;7.24
69590;BMP180;56792;50.644;17.984;2023-02-20T10:34:07;99704.00;;;7.30
69590;BMP180;56792;50.644;17.984;2023-02-20T10:36:45;99695.20;;;7.36
69590;BMP180;56792;50.644;17.984;2023-02-20T10:39:22;99684.40;;;7.42
69590;BMP180;56792;50.644;17.984;2023-02-20T10:42:02;99667.80;;;7.60
69590;BMP180;56792;50.644;17.984;2023-02-20T10:44:44;99670.20;;;7.70
69590;BMP180;56792;50.644;17.984;2023-02-20T10:47:26;99671.80;;;7.70
69590;BMP180;56792;50.644;17.984;2023-02-20T10:50:07;99657.20;;;7.80
69590;BMP180;56792;50.644;17.984;2023-02-20T10:52:47;99643.20;;;7.80
69590;BMP180;56792;50.644;17.984;2023-02-20T10:55:27;99629.20;;;7.84
69590;BMP180;56792;50.644;17.984;2023-02-20T10:58:07;99612.00;;;7.90
69590;BMP180;56792;50.644;17.984;2023-02-20T11:00:48;99613.20;;;8.00
69590;BMP180;56792;50.644;17.984;2023-02-20T11:03:27;99603.40;;;8.00
69590;BMP180;56792;50.644;17.984;2023-02-20T11:06:04;99609.40;;;8.00
69590;BMP180;56792;50.644;17.984;2023-02-20T11:08:38;99589.20;;;8.00
69590;BMP180;56792;50.644;17.984;2023-02-20T11:11:26;99585.80;;;8.00
69590;BMP180;56792;50.644;17.984;2023-02-20T11:14:04;99573.20;;;8.00
69590;BMP180;56792;50.644;17.984;2023-02-20T11:16:47;99563.00;;;8.10
69590;BMP180;56792;50.644;17.984;2023-02-20T11:19:27;99566.60;;;8.10
69590;BMP180;56792;50.644;17.984;2023-02-20T11:22:01;99554.40;;;8.20
69590;BMP180;56792;50.644;17.984;2023-02-20T11:24:36;99533.00;;;8.26
69590;BMP180;56792;50.644;17.984;2023-02-20T11:27:14;99522.20;;;8.30
69590;BMP180;56792;50.644;17.984;2023-02-20T11:29:53;99517.40;;;8.40
69590;BMP180;56792;50.644;17.984;2023-02-20T11:32:35;99517.40;;;8.60
69590;BMP180;56792;50.644;17.984;2023-02-20T11:35:31;99512.60;;;8.82
69590;BMP180;56792;50.644;17.984;2023-02-20T11:38:29;99518.20;;;9.00
69590;BMP180;56792;50.644;17.984;2023-02-20T11:41:18;99511.40;;;9.10
69590;BMP180;56792;50.644;17.984;2023-02-20T11:44:30;99491.60;;;9.20
69590;BMP180;56792;50.644;17.984;2023-02-20T11:47:29;99496.00;;;9.30
69590;BMP180;56792;50.644;17.984;2023-02-20T11:50:18;99489.20;;;9.30
69590;BMP180;56792;50.644;17.984;2023-02-20T11:53:03;99478.40;;;9.40
69590;BMP180;56792;50.644;17.984;2023-02-20T11:55:38;99497.80;;;9.46
69590;BMP180;56792;50.644;17.984;2023-02-20T11:58:25;99481.40;;;9.50
69590;BMP180;56792;50.644;17.984;2023-02-20T12:00:58;99468.00;;;9.60
69590;BMP180;56792;50.644;17.984;2023-02-20T12:03:33;99458.60;;;9.64
69590;BMP180;56792;50.644;17.984;2023-02-20T12:06:40;99468.40;;;9.78
69590;BMP180;56792;50.644;17.984;2023-02-20T12:09:18;99451.20;;;9.80
69590;BMP180;56792;50.644;17.984;2023-02-20T12:11:56;99453.60;;;9.80
69590;BMP180;56792;50.644;17.984;2023-02-20T12:14:28;99453.00;;;9.80
69590;BMP180;56792;50.644;17.984;2023-02-20T12:17:17;99457.20;;;9.90
69590;BMP180;56792;50.644;17.984;2023-02-20T12:20:02;99448.20;;;9.90
69590;BMP180;56792;50.644;17.984;2023-02-20T12:22:41;99445.00;;;9.90
69590;BMP180;56792;50.644;17.984;2023-02-20T12:25:30;99433.20;;;10.00
69590;BMP180;56792;50.644;17.984;2023-02-20T12:28:17;99432.80;;;10.00
69590;BMP180;56792;50.644;17.984;2023-02-20T12:31:08;99425.20;;;10.10
69590;BMP180;56792;50.644;17.984;2023-02-20T12:34:02;99428.00;;;10.20
69590;BMP180;56792;50.644;17.984;2023-02-20T12:36:40;99436.20;;;10.20
69590;BMP180;56792;50.644;17.984;2023-02-20T12:39:27;99429.80;;;10.30
69590;BMP180;56792;50.644;17.984;2023-02-20T12:42:24;99416.40;;;10.26
69590;BMP180;56792;50.644;17.984;2023-02-20T12:45:15;99430.80;;;10.30
69590;BMP180;56792;50.644;17.984;2023-02-20T12:47:55;99429.80;;;10.30
69590;BMP180;56792;50.644;17.984;2023-02-20T12:50:49;99419.40;;;10.30
69590;BMP180;56792;50.644;17.984;2023-02-20T12:53:46;99411.20;;;10.20
69590;BMP180;56792;50.644;17.984;2023-02-20T12:56:35;99393.20;;;10.20
69590;BMP180;56792;50.644;17.984;2023-02-20T12:59:25;99390.60;;;10.20
69590;BMP180;56792;50.644;17.984;2023-02-20T13:02:14;99368.60;;;10.20
69590;BMP180;56792;50.644;17.984;2023-02-20T13:04:57;99357.20;;;10.20
69590;BMP180;56792;50.644;17.984;2023-02-20T13:07:36;99352.80;;;10.20
69590;BMP180;56792;50.644;17.984;2023-02-20T13:10:19;99335.40;;;10.20
69590;BMP180;56792;50.644;17.984;2023-02-20T13:12:54;99322.40;;;10.20
69590;BMP180;56792;50.644;17.984;2023-02-20T13:15:39;99315.40;;;10.20
69590;BMP180;56792;50.644;17.984;2023-02-20T13:18:22;99292.20;;;10.20
69590;BMP180;56792;50.644;17.984;2023-02-20T13:21:02;99278.00;;;10.20
69590;BMP180;56792;50.644;17.984;2023-02-20T13:23:39;99259.60;;;10.30
69590;BMP180;56792;50.644;17.984;2023-02-20T13:26:48;99261.80;;;10.40
69590;BMP180;56792;50.644;17.984;2023-02-20T13:29:24;99248.40;;;10.50
69590;BMP180;56792;50.644;17.984;2023-02-20T13:31:58;99234.20;;;10.50
69590;BMP180;56792;50.644;17.984;2023-02-20T13:34:38;99223.20;;;10.50
69590;BMP180;56792;50.644;17.984;2023-02-20T13:37:50;99229.00;;;10.50
69590;BMP180;56792;50.644;17.984;2023-02-20T13:40:42;99211.80;;;10.50
69590;BMP180;56792;50.644;17.984;2023-02-20T13:43:32;99210.40;;;10.60
69590;BMP180;56792;50.644;17.984;2023-02-20T13:46:21;99209.80;;;10.50
69590;BMP180;56792;50.644;17.984;2023-02-20T13:48:56;99201.80;;;10.60
69590;BMP180;56792;50.644;17.984;2023-02-20T13:51:37;99196.80;;;10.86
69590;BMP180;56792;50.644;17.984;2023-02-20T13:54:35;99196.60;;;11.00
69590;BMP180;56792;50.644;17.984;2023-02-20T13:57:18;99200.00;;;11.20
69590;BMP180;56792;50.644;17.984;2023-02-20T13:59:53;99206.20;;;11.30
69590;BMP180;56792;50.644;17.984;2023-02-20T14:02:26;99206.60;;;11.20
69590;BMP180;56792;50.644;17.984;2023-02-20T14:05:03;99198.40;;;11.20
69590;BMP180;56792;50.644;17.984;2023-02-20T14:07:43;99189.20;;;11.20
69590;BMP180;56792;50.644;17.984;2023-02-20T14:10:26;99191.00;;;11.76
69590;BMP180;56792;50.644;17.984;2023-02-20T14:13:09;99179.80;;;12.60
69590;BMP180;56792;50.644;17.984;2023-02-20T14:15:51;99181.20;;;13.00
69590;BMP180;56792;50.644;17.984;2023-02-20T14:18:29;99173.20;;;13.38
69590;BMP180;56792;50.644;17.984;2023-02-20T14:21:19;99174.80;;;13.88
69590;BMP180;56792;50.644;17.984;2023-02-20T14:23:54;99170.60;;;14.16
69590;BMP180;56792;50.644;17.984;2023-02-20T14:26:28;99179.80;;;14.30
69590;BMP180;56792;50.644;17.984;2023-02-20T14:29:03;99174.60;;;14.14
69590;BMP180;56792;50.644;17.984;2023-02-20T14:31:53;99177.40;;;13.44
69590;BMP180;56792;50.644;17.984;2023-02-20T14:34:35;99173.20;;;12.90
69590;BMP180;56792;50.644;17.984;2023-02-20T14:37:15;99170.20;;;12.40
69590;BMP180;56792;50.644;17.984;2023-02-20T14:40:00;99162.20;;;12.10
69590;BMP180;56792;50.644;17.984;2023-02-20T14:42:37;99157.00;;;12.10
69590;BMP180;56792;50.644;17.984;2023-02-20T14:45:19;99152.00;;;12.00
69590;BMP180;56792;50.644;17.984;2023-02-20T14:47:57;99148.60;;;11.90
69590;BMP180;56792;50.644;17.984;2023-02-20T14:50:34;99159.40;;;11.80
69590;BMP180;56792;50.644;17.984;2023-02-20T14:53:16;99150.20;;;11.70
69590;BMP180;56792;50.644;17.984;2023-02-20T14:55:52;99162.00;;;11.70
69590;BMP180;56792;50.644;17.984;2023-02-20T14:58:24;99161.60;;;11.60
69590;BMP180;56792;50.644;17.984;2023-02-20T15:00:57;99176.40;;;11.50
69590;BMP180;56792;50.644;17.984;2023-02-20T15:03:32;99178.80;;;11.50
69590;BMP180;56792;50.644;17.984;2023-02-20T15:06:08;99177.20;;;11.36
69590;BMP180;56792;50.644;17.984;2023-02-20T15:08:43;99179.40;;;11.30
69590;BMP180;56792;50.644;17.984;2023-02-20T15:11:17;99173.60;;;11.20
69590;BMP180;56792;50.644;17.984;2023-02-20T15:13:52;99164.80;;;11.20
69590;BMP180;56792;50.644;17.984;2023-02-20T15:16:29;99167.60;;;11.10